Time;durP1;ratioP1;P1;durP2;ratioP2;P2;SDS_P1;SDS_P2;PMS_P1;PMS_P2;Temp;Humidity;BMP_temperature;BMP_pressure;BME280_temperature;BME280_humidity;BME280_pressure;Samples;Min_cycle;Max_cycle;Signal;HPM_P1;HPM_P2
2023/04/02 00:01:37;;;;;;;;;;;5.20;99.90;;;;;;5079488;28;20014;-77
2023/04/02 00:04:07;;;;;;;;;;;5.10;99.90;;;;;;5078679;28;19928;-77
2023/04/02 00:06:43;;;;;;;;;;;5.10;99.90;;;;;;5092557;28;19946;-77
2023/04/02 00:09:12;;;;;;;;;;;5.10;99.90;;;;;;5077331;28;19960;-77
2023/04/02 00:11:43;;;;;;;;;;;5.00;99.90;;;;;;5079195;28;20342;-77
2023/04/02 00:14:26;;;;;;;;;;;5.00;99.90;;;;;;5071298;28;19991;-76
2023/04/02 00:16:55;;;;;;;;;;;5.00;99.90;;;;;;5079083;28;19928;-76
2023/04/02 00:19:28;;;;;;;;;;;4.90;99.90;;;;;;5078207;28;19931;-76
2023/04/02 00:21:55;;;;;;;;;;;4.90;99.90;;;;;;5070799;28;19924;-77
2023/04/02 00:24:21;;;;;;;;;;;4.90;99.90;;;;;;5078999;28;19924;-77
2023/04/02 00:26:48;;;;;;;;;;;4.90;99.90;;;;;;5099947;28;19928;-77
2023/04/02 00:29:14;;;;;;;;;;;4.90;99.90;;;;;;5081522;28;19971;-77
2023/04/02 00:31:41;;;;;;;;;;;4.90;99.90;;;;;;5081754;28;20023;-77
2023/04/02 00:34:08;;;;;;;;;;;4.90;99.90;;;;;;5081426;28;19931;-78
2023/04/02 00:36:35;;;;;;;;;;;4.90;99.90;;;;;;5098175;28;19924;-77
2023/04/02 00:39:02;;;;;;;;;;;4.90;99.90;;;;;;5097124;28;19939;-77
2023/04/02 00:41:29;;;;;;;;;;;4.90;99.90;;;;;;5061236;28;19924;-78
2023/04/02 00:43:56;;;;;;;;;;;4.90;99.90;;;;;;5080203;28;19939;-78
2023/04/02 00:46:30;;;;;;;;;;;4.80;99.90;;;;;;5096072;28;19924;-77
2023/04/02 00:48:58;;;;;;;;;;;4.80;99.90;;;;;;5089899;28;19954;-78
2023/04/02 00:51:27;;;;;;;;;;;4.80;99.90;;;;;;5098902;28;19924;-77
2023/04/02 00:53:54;;;;;;;;;;;4.80;99.90;;;;;;5074333;28;19939;-77
2023/04/02 00:56:28;;;;;;;;;;;4.80;99.90;;;;;;5083447;28;19974;-77
2023/04/02 00:58:54;;;;;;;;;;;4.80;99.90;;;;;;5083229;28;19924;-77
2023/04/02 01:01:22;;;;;;;;;;;4.80;99.90;;;;;;5100746;28;19928;-77
2023/04/02 01:03:57;;;;;;;;;;;4.80;99.90;;;;;;5078732;28;19953;-77
2023/04/02 01:06:24;;;;;;;;;;;4.70;99.90;;;;;;5079763;28;20316;-77
2023/04/02 01:08:56;;;;;;;;;;;4.70;99.90;;;;;;5100124;28;19938;-77
2023/04/02 01:11:28;;;;;;;;;;;4.80;99.90;;;;;;5083827;28;20415;-77
2023/04/02 01:14:03;;;;;;;;;;;4.70;99.90;;;;;;5083645;28;19935;-77
2023/04/02 01:16:29;;;;;;;;;;;4.70;99.90;;;;;;5083562;28;19928;-77
2023/04/02 01:18:55;;;;;;;;;;;4.70;99.90;;;;;;5081594;28;19935;-77
2023/04/02 01:21:27;;;;;;;;;;;4.70;99.90;;;;;;5082404;28;19954;-77
2023/04/02 01:23:56;;;;;;;;;;;4.70;99.90;;;;;;5079619;28;19931;-77
2023/04/02 01:26:22;;;;;;;;;;;4.60;99.90;;;;;;5100331;28;19924;-77
2023/04/02 01:29:12;;;;;;;;;;;4.60;99.90;;;;;;5099603;28;19950;-76
2023/04/02 01:31:39;;;;;;;;;;;4.50;99.90;;;;;;5098432;28;19931;-77
2023/04/02 01:34:06;;;;;;;;;;;4.50;99.90;;;;;;5061215;28;19925;-77
2023/04/02 01:36:55;;;;;;;;;;;4.40;99.90;;;;;;5078627;28;19928;-77
2023/04/02 01:39:30;;;;;;;;;;;4.40;99.90;;;;;;5062641;28;19973;-77
2023/04/02 01:42:14;;;;;;;;;;;4.40;99.90;;;;;;5069637;28;20372;-76
2023/04/02 01:44:40;;;;;;;;;;;4.30;99.90;;;;;;5079337;28;20436;-77
2023/04/02 01:47:09;;;;;;;;;;;4.20;99.90;;;;;;5081554;28;20329;-76
2023/04/02 01:49:35;;;;;;;;;;;4.10;99.90;;;;;;5077506;28;20286;-76
2023/04/02 01:52:00;;;;;;;;;;;4.10;99.90;;;;;;5065284;28;19967;-77
2023/04/02 01:54:27;;;;;;;;;;;4.10;99.90;;;;;;5079351;28;19924;-77
2023/04/02 01:56:54;;;;;;;;;;;4.00;99.90;;;;;;5100717;28;19994;-77
2023/04/02 01:59:21;;;;;;;;;;;3.90;99.90;;;;;;5063561;28;19928;-77
2023/04/02 02:01:50;;;;;;;;;;;3.90;99.90;;;;;;5080609;28;19928;-77
2023/04/02 02:04:19;;;;;;;;;;;3.80;99.90;;;;;;5081342;28;19928;-77
2023/04/02 02:06:45;;;;;;;;;;;3.70;99.90;;;;;;5094613;28;19995;-77
2023/04/02 02:09:16;;;;;;;;;;;3.70;99.90;;;;;;5078770;28;19924;-77
2023/04/02 02:11:41;;;;;;;;;;;3.60;99.90;;;;;;5080450;28;20015;-77
2023/04/02 02:14:17;;;;;;;;;;;3.50;99.90;;;;;;5080125;28;19958;-77
2023/04/02 02:16:44;;;;;;;;;;;3.50;99.90;;;;;;5079703;28;19935;-77
2023/04/02 02:19:22;;;;;;;;;;;3.50;99.90;;;;;;5080344;28;19938;-77
2023/04/02 02:21:50;;;;;;;;;;;3.40;99.90;;;;;;5080928;28;19924;-77
2023/04/02 02:24:27;;;;;;;;;;;3.40;99.90;;;;;;5098516;28;20296;-76
2023/04/02 02:27:00;;;;;;;;;;;3.30;99.90;;;;;;5079472;28;19951;-76
2023/04/02 02:29:27;;;;;;;;;;;3.30;99.90;;;;;;5096308;28;20485;-76
2023/04/02 02:31:54;;;;;;;;;;;3.20;99.90;;;;;;5096803;28;19947;-77
2023/04/02 02:34:24;;;;;;;;;;;3.10;99.90;;;;;;5079811;28;20015;-76
2023/04/02 02:36:52;;;;;;;;;;;3.10;99.90;;;;;;5077672;28;19928;-76
2023/04/02 02:39:24;;;;;;;;;;;3.00;99.90;;;;;;5097508;28;19993;-77
2023/04/02 02:41:56;;;;;;;;;;;2.90;99.90;;;;;;5096263;28;19935;-76
2023/04/02 02:44:21;;;;;;;;;;;2.80;99.90;;;;;;5079616;28;19934;-76
2023/04/02 02:46:50;;;;;;;;;;;2.80;99.90;;;;;;5078945;28;19956;-77
2023/04/02 02:49:18;;;;;;;;;;;2.70;99.90;;;;;;5079579;28;19977;-77
2023/04/02 02:52:07;;;;;;;;;;;2.70;99.90;;;;;;5095780;28;19924;-76
2023/04/02 02:54:35;;;;;;;;;;;2.60;99.90;;;;;;5079199;28;19992;-76
2023/04/02 02:57:03;;;;;;;;;;;2.60;99.90;;;;;;5096503;28;19971;-77
2023/04/02 02:59:29;;;;;;;;;;;2.50;99.90;;;;;;5098675;28;19928;-77
2023/04/02 03:01:55;;;;;;;;;;;2.40;99.90;;;;;;5096171;28;20378;-76
2023/04/02 03:04:21;;;;;;;;;;;2.40;99.90;;;;;;5096784;28;19928;-76
2023/04/02 03:06:51;;;;;;;;;;;2.40;99.90;;;;;;5077899;28;19931;-76
2023/04/02 03:09:36;;;;;;;;;;;2.30;99.90;;;;;;5078664;28;19934;-77
2023/04/02 03:12:07;;;;;;;;;;;2.20;99.90;;;;;;5077786;28;19925;-77
2023/04/02 03:14:38;;;;;;;;;;;2.20;99.90;;;;;;5069635;28;19924;-76
2023/04/02 03:17:11;;;;;;;;;;;2.10;99.90;;;;;;5076957;28;20529;-77
2023/04/02 03:19:44;;;;;;;;;;;2.10;99.90;;;;;;5078697;28;19924;-77
2023/04/02 03:22:11;;;;;;;;;;;2.10;99.90;;;;;;5077206;28;19947;-76
2023/04/02 03:24:40;;;;;;;;;;;2.10;99.90;;;;;;5077088;28;19924;-76
2023/04/02 03:27:11;;;;;;;;;;;2.00;99.90;;;;;;5095094;28;19939;-76
2023/04/02 03:29:40;;;;;;;;;;;2.00;99.90;;;;;;5095130;28;19924;-76
2023/04/02 03:32:26;;;;;;;;;;;2.00;99.90;;;;;;5076954;28;20284;-76
2023/04/02 03:34:54;;;;;;;;;;;1.90;99.90;;;;;;5078244;28;19946;-76
2023/04/02 03:37:22;;;;;;;;;;;1.90;99.90;;;;;;5078179;28;19934;-76
2023/04/02 03:39:58;;;;;;;;;;;1.80;99.90;;;;;;5077364;28;19940;-76
2023/04/02 03:42:25;;;;;;;;;;;1.80;99.90;;;;;;5077029;28;19925;-76
2023/04/02 03:44:50;;;;;;;;;;;1.80;99.90;;;;;;5077258;28;20512;-76
2023/04/02 03:47:36;;;;;;;;;;;1.70;99.90;;;;;;5078187;28;21553;-76
2023/04/02 03:50:06;;;;;;;;;;;1.70;99.90;;;;;;5091552;28;19924;-76
2023/04/02 03:52:33;;;;;;;;;;;1.80;99.90;;;;;;5078233;28;19983;-76
2023/04/02 03:55:01;;;;;;;;;;;1.80;99.90;;;;;;5076195;28;19928;-76
2023/04/02 03:57:36;;;;;;;;;;;1.70;99.90;;;;;;5093903;28;19924;-76
2023/04/02 04:00:01;;;;;;;;;;;1.80;99.90;;;;;;5077027;28;19924;-76
2023/04/02 04:02:33;;;;;;;;;;;1.90;99.90;;;;;;5095141;28;19957;-76
2023/04/02 04:04:59;;;;;;;;;;;1.90;99.90;;;;;;5091255;28;19939;-76
2023/04/02 04:07:34;;;;;;;;;;;1.90;99.90;;;;;;5060758;28;19931;-76
2023/04/02 04:10:00;;;;;;;;;;;2.00;99.90;;;;;;5094254;28;19924;-76
2023/04/02 04:12:29;;;;;;;;;;;2.00;99.90;;;;;;5093451;28;19924;-76
2023/04/02 04:15:05;;;;;;;;;;;2.00;99.90;;;;;;5077439;28;19924;-76
2023/04/02 04:17:37;;;;;;;;;;;2.10;99.90;;;;;;5077095;28;19950;-77
2023/04/02 04:20:13;;;;;;;;;;;2.20;99.90;;;;;;5077946;28;19928;-76
2023/04/02 04:22:39;;;;;;;;;;;2.10;99.90;;;;;;5078045;28;19932;-76
2023/04/02 04:25:07;;;;;;;;;;;2.10;99.90;;;;;;5081365;28;20601;-76
2023/04/02 04:27:41;;;;;;;;;;;2.10;99.90;;;;;;5081396;28;19970;-76
2023/04/02 04:30:09;;;;;;;;;;;2.10;99.90;;;;;;5080548;28;19930;-76
2023/04/02 04:32:37;;;;;;;;;;;2.10;99.90;;;;;;5097960;28;19924;-77
2023/04/02 04:35:14;;;;;;;;;;;2.10;99.90;;;;;;5081465;28;20001;-76
2023/04/02 04:37:40;;;;;;;;;;;2.20;99.90;;;;;;5078232;28;19954;-77
2023/04/02 04:40:15;;;;;;;;;;;2.10;99.90;;;;;;5098295;28;19963;-77
2023/04/02 04:42:42;;;;;;;;;;;2.10;99.90;;;;;;5078438;28;19996;-77
2023/04/02 04:45:10;;;;;;;;;;;2.10;99.90;;;;;;5098125;28;20030;-76
2023/04/02 04:47:38;;;;;;;;;;;2.20;99.90;;;;;;5095440;28;19927;-76
2023/04/02 04:50:11;;;;;;;;;;;2.10;99.90;;;;;;5080041;28;19928;-77
2023/04/02 04:52:38;;;;;;;;;;;2.10;99.90;;;;;;5081375;28;19962;-76
2023/04/02 04:55:24;;;;;;;;;;;2.10;99.90;;;;;;5081868;28;19924;-77
2023/04/02 04:57:53;;;;;;;;;;;2.10;99.90;;;;;;5096185;28;19979;-76
2023/04/02 05:00:26;;;;;;;;;;;2.10;99.90;;;;;;5078598;28;20571;-76
2023/04/02 05:02:56;;;;;;;;;;;2.10;99.90;;;;;;5076416;28;19924;-76
2023/04/02 05:05:28;;;;;;;;;;;2.10;99.90;;;;;;5086148;28;19924;-77
2023/04/02 05:08:04;;;;;;;;;;;2.10;99.90;;;;;;5099335;28;19928;-76
2023/04/02 05:10:30;;;;;;;;;;;2.10;99.90;;;;;;5086093;28;20009;-77
2023/04/02 05:12:59;;;;;;;;;;;2.10;99.90;;;;;;5082578;28;20366;-76
2023/04/02 05:15:30;;;;;;;;;;;2.00;99.90;;;;;;5082600;28;20019;-76
2023/04/02 05:18:10;;;;;;;;;;;2.00;99.90;;;;;;5082832;28;19928;-76
2023/04/02 05:20:41;;;;;;;;;;;2.00;99.90;;;;;;5081794;28;19928;-77
2023/04/02 05:23:10;;;;;;;;;;;2.00;99.90;;;;;;5099446;28;19931;-76
2023/04/02 05:25:36;;;;;;;;;;;2.00;99.90;;;;;;5099494;28;19947;-76
2023/04/02 05:28:09;;;;;;;;;;;2.00;99.90;;;;;;5082483;28;19947;-76
2023/04/02 05:31:00;;;;;;;;;;;2.00;99.90;;;;;;5082216;28;19950;-76
2023/04/02 05:33:27;;;;;;;;;;;1.90;99.90;;;;;;5078602;28;19935;-76
2023/04/02 05:35:58;;;;;;;;;;;1.90;99.90;;;;;;5080147;28;19931;-76
2023/04/02 05:38:28;;;;;;;;;;;1.90;99.90;;;;;;5071486;28;20027;-77
2023/04/02 05:40:58;;;;;;;;;;;1.90;99.90;;;;;;5098771;28;19924;-76
2023/04/02 05:43:25;;;;;;;;;;;2.00;99.90;;;;;;5081864;28;19992;-76
2023/04/02 05:45:52;;;;;;;;;;;2.00;99.90;;;;;;5082341;28;19931;-76
2023/04/02 05:48:19;;;;;;;;;;;1.90;99.90;;;;;;5081998;28;19924;-76
2023/04/02 05:50:51;;;;;;;;;;;2.00;99.90;;;;;;5098533;28;19924;-76
2023/04/02 05:53:20;;;;;;;;;;;2.00;99.90;;;;;;5081547;28;19963;-77
2023/04/02 05:55:56;;;;;;;;;;;2.00;99.90;;;;;;5097611;28;19924;-77
2023/04/02 05:58:25;;;;;;;;;;;2.10;99.90;;;;;;5079376;28;20384;-76
2023/04/02 06:00:55;;;;;;;;;;;2.10;99.90;;;;;;5081953;28;19987;-77
2023/04/02 06:03:25;;;;;;;;;;;2.10;99.90;;;;;;5098627;28;19924;-77
2023/04/02 06:05:52;;;;;;;;;;;2.10;99.90;;;;;;5080878;28;19930;-77
2023/04/02 06:08:23;;;;;;;;;;;2.10;99.90;;;;;;5081052;28;19925;-76
2023/04/02 06:10:53;;;;;;;;;;;2.20;99.90;;;;;;5080665;28;19975;-76
2023/04/02 06:13:19;;;;;;;;;;;2.20;99.90;;;;;;5096409;28;19943;-77
2023/04/02 06:15:45;;;;;;;;;;;2.20;99.90;;;;;;5081431;28;19924;-77
2023/04/02 06:18:18;;;;;;;;;;;2.30;99.90;;;;;;5064810;28;20011;-77
2023/04/02 06:20:44;;;;;;;;;;;2.30;99.90;;;;;;5080205;28;19928;-77
2023/04/02 06:23:15;;;;;;;;;;;2.30;99.90;;;;;;5080288;28;19924;-77
2023/04/02 06:25:44;;;;;;;;;;;2.40;99.90;;;;;;5081215;28;19924;-77
2023/04/02 06:28:15;;;;;;;;;;;2.40;99.90;;;;;;5081585;28;20444;-78
2023/04/02 06:30:42;;;;;;;;;;;2.40;99.90;;;;;;5080965;28;19924;-77
2023/04/02 06:33:09;;;;;;;;;;;2.40;99.90;;;;;;5064019;28;19983;-76
2023/04/02 06:35:37;;;;;;;;;;;2.50;99.90;;;;;;5097516;28;19928;-77
2023/04/02 06:38:04;;;;;;;;;;;2.40;99.90;;;;;;5080605;28;20008;-78
2023/04/02 06:40:33;;;;;;;;;;;2.40;99.90;;;;;;5080701;28;19928;-77
2023/04/02 06:43:00;;;;;;;;;;;2.50;99.90;;;;;;5097448;28;19963;-78
2023/04/02 06:45:29;;;;;;;;;;;2.50;99.90;;;;;;5097684;28;19931;-76
2023/04/02 06:47:56;;;;;;;;;;;2.60;99.90;;;;;;5097677;28;19923;-77
2023/04/02 06:50:25;;;;;;;;;;;2.60;99.90;;;;;;5097460;28;19963;-77
2023/04/02 06:52:52;;;;;;;;;;;2.70;99.90;;;;;;5096705;28;19978;-77
2023/04/02 06:55:24;;;;;;;;;;;2.70;99.90;;;;;;5075949;28;20439;-77
2023/04/02 06:57:49;;;;;;;;;;;2.80;99.90;;;;;;5078558;28;19932;-77
2023/04/02 07:00:24;;;;;;;;;;;2.80;99.90;;;;;;5078263;28;19974;-77
2023/04/02 07:02:51;;;;;;;;;;;2.70;99.90;;;;;;5079776;28;20314;-77
2023/04/02 07:05:16;;;;;;;;;;;2.80;99.90;;;;;;5079399;28;19991;-77
2023/04/02 07:07:42;;;;;;;;;;;2.80;99.90;;;;;;5062613;28;19940;-77
2023/04/02 07:10:08;;;;;;;;;;;2.80;99.90;;;;;;5061895;28;19923;-77
2023/04/02 07:12:33;;;;;;;;;;;2.80;99.90;;;;;;5082025;28;19932;-76
2023/04/02 07:14:59;;;;;;;;;;;2.90;99.90;;;;;;5057765;28;19931;-77
2023/04/02 07:17:25;;;;;;;;;;;2.90;99.90;;;;;;5094783;28;19943;-77
2023/04/02 07:19:50;;;;;;;;;;;2.90;99.90;;;;;;5077946;28;19932;-77
2023/04/02 07:22:16;;;;;;;;;;;3.00;99.90;;;;;;5075460;28;19932;-77
2023/04/02 07:24:42;;;;;;;;;;;3.00;99.90;;;;;;5090410;28;19943;-77
2023/04/02 07:27:09;;;;;;;;;;;3.00;99.90;;;;;;5075210;28;19924;-77
2023/04/02 07:29:34;;;;;;;;;;;3.10;99.90;;;;;;5070803;28;19968;-77
2023/04/02 07:32:00;;;;;;;;;;;3.10;99.90;;;;;;5071262;28;19928;-77
2023/04/02 07:34:25;;;;;;;;;;;3.30;99.90;;;;;;5074449;28;19924;-77
2023/04/02 07:36:51;;;;;;;;;;;3.40;99.90;;;;;;5066481;28;19975;-78
2023/04/02 07:39:17;;;;;;;;;;;3.50;99.90;;;;;;5060216;28;20417;-78
2023/04/02 07:41:56;;;;;;;;;;;3.80;99.90;;;;;;5074671;28;20325;-78
2023/04/02 07:44:21;;;;;;;;;;;4.10;99.90;;;;;;5076994;28;20371;-78
2023/04/02 07:46:47;;;;;;;;;;;4.80;99.90;;;;;;5076467;28;19924;-78
2023/04/02 07:49:13;;;;;;;;;;;5.10;99.90;;;;;;5076816;28;19932;-78
2023/04/02 07:51:38;;;;;;;;;;;5.30;99.90;;;;;;5077395;28;20051;-78
2023/04/02 07:54:04;;;;;;;;;;;5.60;99.90;;;;;;5057460;28;19924;-77
2023/04/02 07:56:30;;;;;;;;;;;6.20;99.90;;;;;;5057672;28;19928;-78
2023/04/02 07:58:56;;;;;;;;;;;6.70;99.90;;;;;;5097325;28;19924;-78
2023/04/02 08:01:24;;;;;;;;;;;6.90;99.90;;;;;;5084940;28;20581;-79
2023/04/02 08:03:50;;;;;;;;;;;7.20;99.90;;;;;;5085520;28;19924;-79
2023/04/02 08:06:16;;;;;;;;;;;7.50;99.90;;;;;;5068264;28;19985;-78
2023/04/02 08:08:41;;;;;;;;;;;7.60;99.90;;;;;;5084385;28;20425;-78
2023/04/02 08:11:07;;;;;;;;;;;7.70;99.90;;;;;;5069115;28;19970;-78
2023/04/02 08:13:33;;;;;;;;;;;7.80;99.60;;;;;;5086808;28;20018;-78
2023/04/02 08:15:59;;;;;;;;;;;7.70;99.90;;;;;;5086303;28;20453;-78
2023/04/02 08:18:25;;;;;;;;;;;7.10;99.90;;;;;;5086630;28;19924;-79
2023/04/02 08:20:54;;;;;;;;;;;6.30;99.90;;;;;;5101984;28;19935;-78
2023/04/02 08:23:20;;;;;;;;;;;5.80;99.90;;;;;;5066562;28;19928;-78
2023/04/02 08:25:46;;;;;;;;;;;5.50;99.90;;;;;;5080664;28;20011;-78
2023/04/02 08:28:12;;;;;;;;;;;5.70;99.90;;;;;;5086469;28;19928;-78
2023/04/02 08:30:38;;;;;;;;;;;6.00;99.90;;;;;;5086164;28;20402;-78
2023/04/02 08:33:03;;;;;;;;;;;6.00;99.90;;;;;;5085881;28;19982;-78
2023/04/02 08:35:29;;;;;;;;;;;5.90;99.90;;;;;;5082119;28;19928;-78
2023/04/02 08:37:55;;;;;;;;;;;5.90;99.90;;;;;;5099743;28;19959;-78
2023/04/02 08:40:33;;;;;;;;;;;6.00;99.90;;;;;;5102214;28;19924;-78
2023/04/02 08:43:14;;;;;;;;;;;6.30;99.90;;;;;;5083426;28;19954;-78
2023/04/02 08:45:55;;;;;;;;;;;6.30;99.90;;;;;;5085122;28;20466;-78
2023/04/02 08:48:22;;;;;;;;;;;6.00;99.90;;;;;;5087851;28;19931;-77
2023/04/02 08:50:48;;;;;;;;;;;5.90;99.90;;;;;;5099495;28;19943;-78
2023/04/02 08:53:19;;;;;;;;;;;5.90;99.90;;;;;;5081217;28;19970;-79
2023/04/02 08:55:51;;;;;;;;;;;6.10;99.90;;;;;;5084940;28;20015;-78
2023/04/02 08:58:28;;;;;;;;;;;6.30;99.90;;;;;;5084488;28;19969;-78
2023/04/02 09:00:54;;;;;;;;;;;6.00;99.90;;;;;;5099977;28;19949;-78
2023/04/02 09:03:35;;;;;;;;;;;5.70;99.90;;;;;;5088745;28;20124;-78
2023/04/02 09:06:01;;;;;;;;;;;5.90;99.90;;;;;;5081466;28;19935;-78
2023/04/02 09:08:28;;;;;;;;;;;6.60;99.90;;;;;;5067450;28;19935;-79
2023/04/02 09:10:59;;;;;;;;;;;7.30;99.90;;;;;;5098837;28;20387;-78
2023/04/02 09:13:26;;;;;;;;;;;7.70;99.90;;;;;;5081274;28;19928;-78
2023/04/02 09:16:00;;;;;;;;;;;8.10;99.90;;;;;;5082552;28;19924;-78
2023/04/02 09:18:27;;;;;;;;;;;8.30;98.20;;;;;;5080342;28;19934;-78
2023/04/02 09:20:52;;;;;;;;;;;8.50;98.70;;;;;;5082258;28;19934;-79
2023/04/02 09:23:22;;;;;;;;;;;8.80;99.90;;;;;;5061081;28;19972;-79
2023/04/02 09:25:50;;;;;;;;;;;9.00;98.40;;;;;;5079799;28;20337;-78
2023/04/02 09:28:16;;;;;;;;;;;9.10;93.80;;;;;;5080840;28;19924;-78
2023/04/02 09:30:42;;;;;;;;;;;9.30;94.20;;;;;;5081862;28;20018;-79
2023/04/02 09:33:08;;;;;;;;;;;9.20;98.10;;;;;;5081122;28;19924;-79
2023/04/02 09:35:35;;;;;;;;;;;9.10;96.20;;;;;;5078530;28;19932;-79
2023/04/02 09:38:15;;;;;;;;;;;8.90;99.90;;;;;;5097961;28;19979;-79
2023/04/02 09:40:53;;;;;;;;;;;8.90;98.80;;;;;;5080466;28;19924;-79
2023/04/02 09:43:20;;;;;;;;;;;9.20;95.10;;;;;;5071988;28;19928;-80
2023/04/02 09:46:00;;;;;;;;;;;9.30;96.80;;;;;;5080351;28;19939;-79
2023/04/02 09:48:29;;;;;;;;;;;9.80;96.20;;;;;;5085961;28;19987;-79
2023/04/02 09:51:05;;;;;;;;;;;10.00;97.00;;;;;;5098884;28;19924;-77
2023/04/02 09:53:35;;;;;;;;;;;10.10;96.50;;;;;;5090086;28;19924;-80
2023/04/02 09:56:07;;;;;;;;;;;10.10;92.70;;;;;;5096654;28;19928;-77
2023/04/02 09:58:32;;;;;;;;;;;9.90;90.80;;;;;;5076701;28;19928;-76
2023/04/02 10:00:59;;;;;;;;;;;9.70;92.10;;;;;;5097148;28;20452;-77
2023/04/02 10:03:25;;;;;;;;;;;9.60;96.10;;;;;;5077905;28;19963;-77
2023/04/02 10:06:05;;;;;;;;;;;9.70;99.90;;;;;;5076952;28;19928;-77
2023/04/02 10:08:31;;;;;;;;;;;10.00;98.50;;;;;;5079370;28;19975;-77
2023/04/02 10:10:59;;;;;;;;;;;10.30;93.30;;;;;;5092832;28;19925;-76
2023/04/02 10:13:27;;;;;;;;;;;10.50;95.60;;;;;;5080443;28;19928;-77
2023/04/02 10:15:53;;;;;;;;;;;10.80;92.70;;;;;;5079094;28;20425;-77
2023/04/02 10:18:22;;;;;;;;;;;10.80;91.60;;;;;;5079902;28;19971;-78
2023/04/02 10:20:50;;;;;;;;;;;10.40;93.20;;;;;;5079342;28;19928;-78
2023/04/02 10:23:16;;;;;;;;;;;9.90;98.50;;;;;;5078281;28;19967;-78
2023/04/02 10:25:45;;;;;;;;;;;9.70;97.40;;;;;;5081662;28;20424;-78
2023/04/02 10:28:11;;;;;;;;;;;9.50;89.60;;;;;;5096140;28;19935;-79
2023/04/02 10:30:56;;;;;;;;;;;9.00;94.30;;;;;;5098574;28;19924;-78
2023/04/02 10:33:48;;;;;;;;;;;8.70;93.50;;;;;;5081057;28;19928;-78
2023/04/02 10:36:40;;;;;;;;;;;8.50;95.70;;;;;;5076084;28;20223;-78
2023/04/02 10:39:10;;;;;;;;;;;8.50;93.30;;;;;;5047867;28;19928;-79
2023/04/02 10:41:44;;;;;;;;;;;8.70;99.90;;;;;;5080601;28;19924;-78
2023/04/02 10:44:19;;;;;;;;;;;8.70;97.30;;;;;;5096860;28;19928;-78
2023/04/02 10:46:54;;;;;;;;;;;8.90;99.90;;;;;;5097771;28;19924;-78
2023/04/02 10:49:34;;;;;;;;;;;9.00;98.90;;;;;;5077461;28;19931;-78
2023/04/02 10:52:20;;;;;;;;;;;8.90;97.90;;;;;;5071687;28;19924;-78
2023/04/02 10:54:48;;;;;;;;;;;8.90;99.90;;;;;;5091170;28;19928;-79
2023/04/02 10:57:29;;;;;;;;;;;9.00;99.90;;;;;;5073788;28;20309;-79
2023/04/02 10:59:58;;;;;;;;;;;9.00;95.20;;;;;;5089827;28;20595;-78
2023/04/02 11:02:27;;;;;;;;;;;9.00;93.00;;;;;;5089872;28;20352;-78
2023/04/02 11:04:53;;;;;;;;;;;9.10;98.00;;;;;;5073777;28;19924;-79
2023/04/02 11:07:21;;;;;;;;;;;9.20;99.90;;;;;;5054425;28;19924;-78
2023/04/02 11:09:49;;;;;;;;;;;9.20;97.80;;;;;;5074201;28;19932;-80
2023/04/02 11:12:31;;;;;;;;;;;9.20;98.90;;;;;;5072182;28;19963;-79
2023/04/02 11:14:56;;;;;;;;;;;9.30;99.40;;;;;;5073838;28;19931;-78
2023/04/02 11:17:23;;;;;;;;;;;9.50;95.40;;;;;;5077535;28;19928;-78
2023/04/02 11:19:48;;;;;;;;;;;9.70;98.80;;;;;;5080588;28;19940;-78
2023/04/02 11:22:16;;;;;;;;;;;9.90;98.90;;;;;;5094507;28;19935;-79
2023/04/02 11:24:43;;;;;;;;;;;10.10;99.90;;;;;;5097343;28;20279;-79
2023/04/02 11:27:08;;;;;;;;;;;10.20;97.50;;;;;;5089976;28;20015;-79
2023/04/02 11:29:39;;;;;;;;;;;10.10;93.90;;;;;;5071224;28;19963;-79
2023/04/02 11:32:24;;;;;;;;;;;9.90;96.90;;;;;;5093107;28;19931;-79
2023/04/02 11:34:50;;;;;;;;;;;9.90;98.80;;;;;;5094765;28;19939;-79
2023/04/02 11:37:35;;;;;;;;;;;10.10;95.20;;;;;;5079335;28;19924;-78
2023/04/02 11:40:21;;;;;;;;;;;10.20;97.90;;;;;;5078168;28;19924;-79
2023/04/02 11:42:50;;;;;;;;;;;10.20;94.30;;;;;;5054419;28;19931;-78
2023/04/02 11:45:19;;;;;;;;;;;10.20;96.60;;;;;;5079724;28;19943;-79
2023/04/02 11:48:00;;;;;;;;;;;10.20;96.80;;;;;;5095767;28;19924;-78
2023/04/02 11:50:33;;;;;;;;;;;10.10;93.30;;;;;;5078981;28;19963;-79
2023/04/02 11:53:02;;;;;;;;;;;10.10;95.30;;;;;;5077413;28;19928;-79
2023/04/02 11:55:31;;;;;;;;;;;10.10;93.00;;;;;;5076920;28;19946;-79
2023/04/02 11:58:01;;;;;;;;;;;10.10;94.40;;;;;;5094755;28;20197;-79
2023/04/02 12:00:45;;;;;;;;;;;10.10;91.90;;;;;;5079496;28;19967;-78
2023/04/02 12:03:37;;;;;;;;;;;10.10;94.50;;;;;;5095411;28;19931;-79
2023/04/02 12:06:05;;;;;;;;;;;10.10;93.60;;;;;;5047807;28;20362;-79
2023/04/02 12:08:39;;;;;;;;;;;10.00;92.00;;;;;;5078899;28;19925;-79
2023/04/02 12:11:05;;;;;;;;;;;9.90;93.20;;;;;;5078044;28;20015;-80
2023/04/02 12:13:39;;;;;;;;;;;9.90;95.20;;;;;;5079776;28;19924;-79
2023/04/02 12:16:06;;;;;;;;;;;10.10;96.20;;;;;;5076081;28;19928;-79
2023/04/02 12:18:33;;;;;;;;;;;10.30;95.70;;;;;;5076220;28;19970;-79
2023/04/02 12:20:58;;;;;;;;;;;10.50;98.90;;;;;;5059071;28;20183;-78
2023/04/02 12:23:30;;;;;;;;;;;10.50;94.70;;;;;;5061204;28;19928;-79
2023/04/02 12:26:00;;;;;;;;;;;10.40;95.50;;;;;;5095159;28;19924;-79
2023/04/02 12:28:30;;;;;;;;;;;10.40;97.90;;;;;;5077335;28;20002;-79
2023/04/02 12:31:03;;;;;;;;;;;10.40;95.80;;;;;;5079800;28;19939;-78
2023/04/02 12:33:36;;;;;;;;;;;10.30;96.70;;;;;;5096020;28;19972;-80
2023/04/02 12:36:17;;;;;;;;;;;10.30;93.00;;;;;;5073836;28;19932;-79
2023/04/02 12:38:44;;;;;;;;;;;10.40;90.50;;;;;;5077819;28;19988;-79
2023/04/02 12:41:23;;;;;;;;;;;10.40;94.90;;;;;;5095951;28;19988;-79
2023/04/02 12:43:58;;;;;;;;;;;10.30;91.40;;;;;;5074629;28;19964;-79
2023/04/02 12:46:25;;;;;;;;;;;10.30;91.80;;;;;;5078716;28;19931;-78
2023/04/02 12:48:57;;;;;;;;;;;10.30;90.20;;;;;;5075646;28;19931;-78
2023/04/02 12:51:22;;;;;;;;;;;10.30;91.50;;;;;;5098883;28;20310;-79
2023/04/02 12:53:50;;;;;;;;;;;10.30;93.80;;;;;;5079803;28;19924;-79
2023/04/02 12:56:23;;;;;;;;;;;10.20;91.90;;;;;;5082057;28;20022;-79
2023/04/02 12:58:59;;;;;;;;;;;10.10;92.20;;;;;;5078872;28;19932;-79
2023/04/02 13:01:30;;;;;;;;;;;10.10;91.90;;;;;;5077851;28;19931;-79
2023/04/02 13:04:06;;;;;;;;;;;10.20;92.30;;;;;;5061176;28;19971;-79
2023/04/02 13:06:33;;;;;;;;;;;10.20;91.50;;;;;;5091742;28;19928;-79
2023/04/02 13:09:00;;;;;;;;;;;10.20;92.30;;;;;;5082775;28;20490;-79
2023/04/02 13:11:39;;;;;;;;;;;10.20;93.90;;;;;;5081452;28;19924;-79
2023/04/02 13:14:23;;;;;;;;;;;10.40;94.80;;;;;;5085804;28;19931;-79
2023/04/02 13:16:49;;;;;;;;;;;10.50;93.80;;;;;;5078573;28;20161;-79
2023/04/02 13:19:20;;;;;;;;;;;10.60;93.60;;;;;;5064302;28;19928;-80
2023/04/02 13:21:47;;;;;;;;;;;10.60;90.30;;;;;;5082296;28;19976;-79
2023/04/02 13:24:31;;;;;;;;;;;10.70;92.30;;;;;;5082793;28;19955;-78
2023/04/02 13:26:59;;;;;;;;;;;10.70;90.80;;;;;;5082718;28;19924;-79
2023/04/02 13:29:32;;;;;;;;;;;10.70;92.20;;;;;;5071635;28;19939;-80
2023/04/02 13:32:02;;;;;;;;;;;10.80;92.60;;;;;;5097609;28;19964;-79
2023/04/02 13:34:28;;;;;;;;;;;10.80;93.00;;;;;;5082031;28;19931;-79
2023/04/02 13:36:53;;;;;;;;;;;10.80;92.40;;;;;;5081486;28;19928;-79
2023/04/02 13:39:19;;;;;;;;;;;10.80;90.80;;;;;;5077511;28;19928;-79
2023/04/02 13:41:47;;;;;;;;;;;10.80;91.90;;;;;;5072729;28;19931;-80
2023/04/02 13:44:39;;;;;;;;;;;10.70;92.30;;;;;;5074985;28;19980;-79
2023/04/02 13:47:04;;;;;;;;;;;10.60;91.80;;;;;;5069977;28;19932;-80
2023/04/02 13:49:30;;;;;;;;;;;10.60;96.20;;;;;;5059370;28;20345;-80
2023/04/02 13:51:58;;;;;;;;;;;10.80;93.40;;;;;;5074646;28;19950;-80
2023/04/02 13:54:26;;;;;;;;;;;10.80;91.20;;;;;;5073762;28;19931;-80
2023/04/02 13:56:53;;;;;;;;;;;10.80;94.70;;;;;;5089331;28;19935;-80
2023/04/02 13:59:19;;;;;;;;;;;11.10;94.20;;;;;;5074680;28;19977;-80
2023/04/02 14:01:46;;;;;;;;;;;11.20;90.30;;;;;;5091581;28;19950;-80
2023/04/02 14:04:15;;;;;;;;;;;11.00;91.20;;;;;;5086606;28;19928;-80
2023/04/02 14:06:41;;;;;;;;;;;10.70;90.40;;;;;;5074355;28;19924;-80
2023/04/02 14:09:25;;;;;;;;;;;10.60;92.30;;;;;;5091000;28;19932;-80
2023/04/02 14:12:00;;;;;;;;;;;10.70;93.70;;;;;;5073789;28;20703;-80
2023/04/02 14:14:45;;;;;;;;;;;10.60;88.50;;;;;;5073929;28;19924;-80
2023/04/02 14:17:30;;;;;;;;;;;10.60;91.80;;;;;;5072975;28;19950;-82
2023/04/02 14:20:01;;;;;;;;;;;10.50;91.60;;;;;;5074603;28;19928;-80
2023/04/02 14:22:42;;;;;;;;;;;10.60;93.70;;;;;;5071364;28;20045;-80
2023/04/02 14:25:23;;;;;;;;;;;10.70;93.10;;;;;;5070166;28;19928;-80
2023/04/02 14:28:08;;;;;;;;;;;10.70;86.90;;;;;;5077276;28;20663;-80
2023/04/02 14:30:46;;;;;;;;;;;10.70;91.70;;;;;;5079577;28;19924;-80
2023/04/02 14:33:27;;;;;;;;;;;10.60;90.50;;;;;;5067937;28;19939;-80
2023/04/02 14:35:56;;;;;;;;;;;10.50;89.20;;;;;;5079518;28;20416;-81
2023/04/02 14:38:22;;;;;;;;;;;10.50;93.10;;;;;;5078603;28;19924;-80
2023/04/02 14:40:50;;;;;;;;;;;10.70;92.10;;;;;;5075402;28;19963;-80
2023/04/02 14:43:21;;;;;;;;;;;10.70;91.70;;;;;;5070325;28;19928;-80
2023/04/02 14:45:58;;;;;;;;;;;10.70;91.20;;;;;;5070643;28;19954;-80